sensor_id;sensor_type;location;lat;lon;timestamp;P1;durP1;ratioP1;P2;durP2;ratioP2
4011;SDS011;2020;48.682;9.024;2023-09-30T00:00:57;5.27;;;2.80;;
4011;SDS011;2020;48.682;9.024;2023-09-30T00:03:23;1.60;;;1.50;;
4011;SDS011;2020;48.682;9.024;2023-09-30T00:05:49;5.93;;;2.77;;
4011;SDS011;2020;48.682;9.024;2023-09-30T00:08:15;4.63;;;2.37;;
4011;SDS011;2020;48.682;9.024;2023-09-30T00:10:40;1.80;;;1.70;;
4011;SDS011;2020;48.682;9.024;2023-09-30T00:13:05;3.20;;;2.27;;
4011;SDS011;2020;48.682;9.024;2023-09-30T00:15:32;5.50;;;2.30;;
4011;SDS011;2020;48.682;9.024;2023-09-30T00:18:00;2.90;;;1.30;;
4011;SDS011;2020;48.682;9.024;2023-09-30T00:20:26;3.10;;;1.90;;
4011;SDS011;2020;48.682;9.024;2023-09-30T00:22:54;7.00;;;2.37;;
4011;SDS011;2020;48.682;9.024;2023-09-30T00:25:20;3.70;;;2.40;;
4011;SDS011;2020;48.682;9.024;2023-09-30T00:27:45;1.93;;;1.73;;
4011;SDS011;2020;48.682;9.024;2023-09-30T00:30:11;5.50;;;2.20;;
4011;SDS011;2020;48.682;9.024;2023-09-30T00:32:36;4.43;;;2.63;;
4011;SDS011;2020;48.682;9.024;2023-09-30T00:35:02;4.00;;;2.03;;
4011;SDS011;2020;48.682;9.024;2023-09-30T00:37:27;2.23;;;2.13;;
4011;SDS011;2020;48.682;9.024;2023-09-30T00:39:53;6.33;;;2.80;;
4011;SDS011;2020;48.682;9.024;2023-09-30T00:42:18;1.63;;;1.53;;
4011;SDS011;2020;48.682;9.024;2023-09-30T00:44:45;2.03;;;1.70;;
4011;SDS011;2020;48.682;9.024;2023-09-30T00:47:11;2.17;;;1.93;;
4011;SDS011;2020;48.682;9.024;2023-09-30T00:49:36;2.80;;;1.50;;
4011;SDS011;2020;48.682;9.024;2023-09-30T00:52:02;2.23;;;2.03;;
4011;SDS011;2020;48.682;9.024;2023-09-30T00:54:28;2.73;;;1.40;;
4011;SDS011;2020;48.682;9.024;2023-09-30T00:56:55;3.67;;;1.97;;
4011;SDS011;2020;48.682;9.024;2023-09-30T00:59:21;2.70;;;2.50;;
4011;SDS011;2020;48.682;9.024;2023-09-30T01:01:47;2.97;;;1.80;;
4011;SDS011;2020;48.682;9.024;2023-09-30T01:04:12;4.40;;;2.10;;
4011;SDS011;2020;48.682;9.024;2023-09-30T01:06:38;3.73;;;2.10;;
4011;SDS011;2020;48.682;9.024;2023-09-30T01:09:04;3.43;;;1.80;;
4011;SDS011;2020;48.682;9.024;2023-09-30T01:11:29;3.20;;;1.97;;
4011;SDS011;2020;48.682;9.024;2023-09-30T01:13:55;6.20;;;3.00;;
4011;SDS011;2020;48.682;9.024;2023-09-30T01:16:21;4.10;;;2.30;;
4011;SDS011;2020;48.682;9.024;2023-09-30T01:18:46;6.10;;;2.70;;
4011;SDS011;2020;48.682;9.024;2023-09-30T01:21:12;5.10;;;1.93;;
4011;SDS011;2020;48.682;9.024;2023-09-30T01:23:37;3.20;;;2.23;;
4011;SDS011;2020;48.682;9.024;2023-09-30T01:26:07;6.13;;;2.43;;
4011;SDS011;2020;48.682;9.024;2023-09-30T01:28:34;2.40;;;1.50;;
4011;SDS011;2020;48.682;9.024;2023-09-30T01:31:00;4.83;;;1.97;;
4011;SDS011;2020;48.682;9.024;2023-09-30T01:33:25;4.87;;;2.23;;
4011;SDS011;2020;48.682;9.024;2023-09-30T01:35:51;2.53;;;1.40;;
4011;SDS011;2020;48.682;9.024;2023-09-30T01:38:16;3.57;;;2.43;;
4011;SDS011;2020;48.682;9.024;2023-09-30T01:40:42;1.90;;;1.60;;
4011;SDS011;2020;48.682;9.024;2023-09-30T01:43:07;5.03;;;2.20;;
4011;SDS011;2020;48.682;9.024;2023-09-30T01:45:32;3.30;;;2.03;;
4011;SDS011;2020;48.682;9.024;2023-09-30T01:47:58;6.70;;;2.40;;
4011;SDS011;2020;48.682;9.024;2023-09-30T01:50:23;6.03;;;1.83;;
4011;SDS011;2020;48.682;9.024;2023-09-30T01:52:48;3.63;;;2.07;;
4011;SDS011;2020;48.682;9.024;2023-09-30T01:55:14;1.57;;;1.47;;
4011;SDS011;2020;48.682;9.024;2023-09-30T01:57:39;3.83;;;1.83;;
4011;SDS011;2020;48.682;9.024;2023-09-30T02:00:04;9.33;;;2.10;;
4011;SDS011;2020;48.682;9.024;2023-09-30T02:02:33;1.40;;;1.30;;
4011;SDS011;2020;48.682;9.024;2023-09-30T02:04:59;2.43;;;1.73;;
4011;SDS011;2020;48.682;9.024;2023-09-30T02:07:24;2.90;;;1.80;;
4011;SDS011;2020;48.682;9.024;2023-09-30T02:09:49;2.77;;;2.43;;
4011;SDS011;2020;48.682;9.024;2023-09-30T02:12:15;2.07;;;1.70;;
4011;SDS011;2020;48.682;9.024;2023-09-30T02:14:40;2.80;;;1.93;;
4011;SDS011;2020;48.682;9.024;2023-09-30T02:17:05;3.13;;;1.67;;
4011;SDS011;2020;48.682;9.024;2023-09-30T02:19:31;5.60;;;2.10;;
4011;SDS011;2020;48.682;9.024;2023-09-30T02:21:58;5.07;;;2.20;;
4011;SDS011;2020;48.682;9.024;2023-09-30T02:24:24;6.00;;;2.43;;
4011;SDS011;2020;48.682;9.024;2023-09-30T02:26:49;2.13;;;1.67;;
4011;SDS011;2020;48.682;9.024;2023-09-30T02:29:16;3.23;;;1.30;;
4011;SDS011;2020;48.682;9.024;2023-09-30T02:31:41;1.83;;;1.73;;
4011;SDS011;2020;48.682;9.024;2023-09-30T02:34:06;4.27;;;1.87;;
4011;SDS011;2020;48.682;9.024;2023-09-30T02:36:32;2.17;;;1.97;;
4011;SDS011;2020;48.682;9.024;2023-09-30T02:38:58;2.27;;;1.90;;
4011;SDS011;2020;48.682;9.024;2023-09-30T02:41:23;2.20;;;2.00;;
4011;SDS011;2020;48.682;9.024;2023-09-30T02:43:48;2.07;;;1.90;;
4011;SDS011;2020;48.682;9.024;2023-09-30T02:46:14;2.47;;;2.37;;
4011;SDS011;2020;48.682;9.024;2023-09-30T02:48:40;2.30;;;2.10;;
4011;SDS011;2020;48.682;9.024;2023-09-30T02:51:09;2.10;;;1.33;;
4011;SDS011;2020;48.682;9.024;2023-09-30T02:53:35;3.93;;;1.43;;
4011;SDS011;2020;48.682;9.024;2023-09-30T02:56:00;2.10;;;1.57;;
4011;SDS011;2020;48.682;9.024;2023-09-30T02:58:25;2.20;;;1.23;;
4011;SDS011;2020;48.682;9.024;2023-09-30T03:00:50;3.63;;;2.40;;
4011;SDS011;2020;48.682;9.024;2023-09-30T03:03:16;2.67;;;1.50;;
4011;SDS011;2020;48.682;9.024;2023-09-30T03:05:41;2.77;;;1.80;;
4011;SDS011;2020;48.682;9.024;2023-09-30T03:08:06;3.20;;;1.90;;
4011;SDS011;2020;48.682;9.024;2023-09-30T03:10:32;2.63;;;1.97;;
4011;SDS011;2020;48.682;9.024;2023-09-30T03:12:57;3.03;;;2.10;;
4011;SDS011;2020;48.682;9.024;2023-09-30T03:15:26;2.70;;;2.50;;
4011;SDS011;2020;48.682;9.024;2023-09-30T03:17:53;2.23;;;1.50;;
4011;SDS011;2020;48.682;9.024;2023-09-30T03:20:20;1.67;;;1.57;;
4011;SDS011;2020;48.682;9.024;2023-09-30T03:22:46;2.47;;;1.80;;
4011;SDS011;2020;48.682;9.024;2023-09-30T03:25:12;2.47;;;2.10;;
4011;SDS011;2020;48.682;9.024;2023-09-30T03:27:41;2.80;;;1.93;;
4011;SDS011;2020;48.682;9.024;2023-09-30T03:30:07;2.30;;;1.77;;
4011;SDS011;2020;48.682;9.024;2023-09-30T03:32:33;3.00;;;1.50;;
4011;SDS011;2020;48.682;9.024;2023-09-30T03:35:03;6.77;;;1.67;;
4011;SDS011;2020;48.682;9.024;2023-09-30T03:37:32;4.63;;;2.20;;
4011;SDS011;2020;48.682;9.024;2023-09-30T03:39:58;1.90;;;1.60;;
4011;SDS011;2020;48.682;9.024;2023-09-30T03:42:23;2.43;;;2.23;;
4011;SDS011;2020;48.682;9.024;2023-09-30T03:44:49;1.77;;;1.37;;
4011;SDS011;2020;48.682;9.024;2023-09-30T03:47:18;2.80;;;1.70;;
4011;SDS011;2020;48.682;9.024;2023-09-30T03:49:43;2.53;;;1.60;;
4011;SDS011;2020;48.682;9.024;2023-09-30T03:52:09;2.70;;;2.13;;
4011;SDS011;2020;48.682;9.024;2023-09-30T03:54:35;2.93;;;2.03;;
4011;SDS011;2020;48.682;9.024;2023-09-30T03:57:02;1.50;;;1.40;;
4011;SDS011;2020;48.682;9.024;2023-09-30T03:59:28;1.93;;;1.60;;
4011;SDS011;2020;48.682;9.024;2023-09-30T04:01:53;1.73;;;1.63;;
4011;SDS011;2020;48.682;9.024;2023-09-30T04:04:19;5.83;;;3.17;;
4011;SDS011;2020;48.682;9.024;2023-09-30T04:06:46;2.47;;;2.30;;
4011;SDS011;2020;48.682;9.024;2023-09-30T04:09:13;5.27;;;2.00;;
4011;SDS011;2020;48.682;9.024;2023-09-30T04:11:38;1.20;;;1.17;;
4011;SDS011;2020;48.682;9.024;2023-09-30T04:14:07;1.97;;;1.87;;
4011;SDS011;2020;48.682;9.024;2023-09-30T04:16:33;1.77;;;1.60;;
4011;SDS011;2020;48.682;9.024;2023-09-30T04:18:59;3.30;;;1.70;;
4011;SDS011;2020;48.682;9.024;2023-09-30T04:21:25;2.63;;;2.03;;
4011;SDS011;2020;48.682;9.024;2023-09-30T04:23:53;2.60;;;1.87;;
4011;SDS011;2020;48.682;9.024;2023-09-30T04:26:18;6.03;;;1.80;;
4011;SDS011;2020;48.682;9.024;2023-09-30T04:28:43;4.80;;;2.27;;
4011;SDS011;2020;48.682;9.024;2023-09-30T04:31:09;1.40;;;1.30;;
4011;SDS011;2020;48.682;9.024;2023-09-30T04:33:34;2.60;;;2.40;;
4011;SDS011;2020;48.682;9.024;2023-09-30T04:36:01;1.50;;;1.40;;
4011;SDS011;2020;48.682;9.024;2023-09-30T04:38:26;1.70;;;1.60;;
4011;SDS011;2020;48.682;9.024;2023-09-30T04:40:52;2.80;;;1.50;;
4011;SDS011;2020;48.682;9.024;2023-09-30T04:43:19;5.60;;;2.10;;
4011;SDS011;2020;48.682;9.024;2023-09-30T04:45:44;2.33;;;2.13;;
4011;SDS011;2020;48.682;9.024;2023-09-30T04:48:10;2.20;;;1.90;;
4011;SDS011;2020;48.682;9.024;2023-09-30T04:50:35;2.90;;;1.27;;
4011;SDS011;2020;48.682;9.024;2023-09-30T04:53:00;1.90;;;1.77;;
4011;SDS011;2020;48.682;9.024;2023-09-30T04:55:27;1.73;;;1.50;;
4011;SDS011;2020;48.682;9.024;2023-09-30T04:57:53;2.00;;;1.57;;
4011;SDS011;2020;48.682;9.024;2023-09-30T05:00:19;2.67;;;1.90;;
4011;SDS011;2020;48.682;9.024;2023-09-30T05:02:50;2.33;;;2.13;;
4011;SDS011;2020;48.682;9.024;2023-09-30T05:05:17;2.10;;;2.00;;
4011;SDS011;2020;48.682;9.024;2023-09-30T05:07:43;2.50;;;2.30;;
4011;SDS011;2020;48.682;9.024;2023-09-30T05:10:09;2.17;;;1.87;;
4011;SDS011;2020;48.682;9.024;2023-09-30T05:12:38;3.20;;;2.20;;
4011;SDS011;2020;48.682;9.024;2023-09-30T05:15:04;3.27;;;2.23;;
4011;SDS011;2020;48.682;9.024;2023-09-30T05:17:32;2.30;;;1.70;;
4011;SDS011;2020;48.682;9.024;2023-09-30T05:19:58;2.60;;;2.13;;
4011;SDS011;2020;48.682;9.024;2023-09-30T05:22:24;1.97;;;1.67;;
4011;SDS011;2020;48.682;9.024;2023-09-30T05:24:52;6.13;;;2.83;;
4011;SDS011;2020;48.682;9.024;2023-09-30T05:27:18;2.23;;;1.90;;
4011;SDS011;2020;48.682;9.024;2023-09-30T05:29:44;3.33;;;1.93;;
4011;SDS011;2020;48.682;9.024;2023-09-30T05:32:09;2.30;;;2.10;;
4011;SDS011;2020;48.682;9.024;2023-09-30T05:34:35;2.77;;;2.23;;
4011;SDS011;2020;48.682;9.024;2023-09-30T05:37:01;2.03;;;1.70;;
4011;SDS011;2020;48.682;9.024;2023-09-30T05:39:26;1.87;;;1.77;;
4011;SDS011;2020;48.682;9.024;2023-09-30T05:41:53;2.13;;;1.90;;
4011;SDS011;2020;48.682;9.024;2023-09-30T05:44:20;2.67;;;2.47;;
4011;SDS011;2020;48.682;9.024;2023-09-30T05:46:45;2.43;;;2.20;;
4011;SDS011;2020;48.682;9.024;2023-09-30T05:49:11;2.23;;;2.13;;
4011;SDS011;2020;48.682;9.024;2023-09-30T05:51:38;3.13;;;2.27;;
4011;SDS011;2020;48.682;9.024;2023-09-30T05:54:05;2.77;;;1.93;;
4011;SDS011;2020;48.682;9.024;2023-09-30T05:56:32;5.10;;;2.10;;
4011;SDS011;2020;48.682;9.024;2023-09-30T05:58:58;1.90;;;1.80;;
4011;SDS011;2020;48.682;9.024;2023-09-30T06:01:23;2.93;;;1.93;;
4011;SDS011;2020;48.682;9.024;2023-09-30T06:03:48;2.23;;;1.83;;
4011;SDS011;2020;48.682;9.024;2023-09-30T06:06:14;2.23;;;2.03;;
4011;SDS011;2020;48.682;9.024;2023-09-30T06:08:42;2.03;;;1.90;;
4011;SDS011;2020;48.682;9.024;2023-09-30T06:11:19;3.33;;;2.47;;
4011;SDS011;2020;48.682;9.024;2023-09-30T06:13:49;5.10;;;2.30;;
4011;SDS011;2020;48.682;9.024;2023-09-30T06:16:15;2.40;;;2.00;;
4011;SDS011;2020;48.682;9.024;2023-09-30T06:18:41;1.77;;;1.67;;
4011;SDS011;2020;48.682;9.024;2023-09-30T06:21:06;2.20;;;2.10;;
4011;SDS011;2020;48.682;9.024;2023-09-30T06:23:31;2.10;;;2.00;;
4011;SDS011;2020;48.682;9.024;2023-09-30T06:25:57;2.60;;;2.50;;
4011;SDS011;2020;48.682;9.024;2023-09-30T06:28:24;2.00;;;1.90;;
4011;SDS011;2020;48.682;9.024;2023-09-30T06:30:54;5.07;;;2.50;;
4011;SDS011;2020;48.682;9.024;2023-09-30T06:33:20;2.17;;;2.00;;
4011;SDS011;2020;48.682;9.024;2023-09-30T06:35:46;9.10;;;2.50;;
4011;SDS011;2020;48.682;9.024;2023-09-30T06:38:20;8.87;;;2.73;;
4011;SDS011;2020;48.682;9.024;2023-09-30T06:40:46;5.20;;;2.00;;
4011;SDS011;2020;48.682;9.024;2023-09-30T06:43:12;7.27;;;2.37;;
4011;SDS011;2020;48.682;9.024;2023-09-30T06:45:40;6.90;;;2.87;;
4011;SDS011;2020;48.682;9.024;2023-09-30T06:48:07;3.00;;;2.80;;
4011;SDS011;2020;48.682;9.024;2023-09-30T06:50:38;3.00;;;2.70;;
4011;SDS011;2020;48.682;9.024;2023-09-30T06:53:04;4.60;;;2.53;;
4011;SDS011;2020;48.682;9.024;2023-09-30T06:55:30;6.20;;;2.40;;
4011;SDS011;2020;48.682;9.024;2023-09-30T06:57:56;3.07;;;2.80;;
4011;SDS011;2020;48.682;9.024;2023-09-30T07:00:22;3.07;;;2.97;;
4011;SDS011;2020;48.682;9.024;2023-09-30T07:02:47;4.03;;;2.93;;
4011;SDS011;2020;48.682;9.024;2023-09-30T07:05:13;13.80;;;3.47;;
4011;SDS011;2020;48.682;9.024;2023-09-30T07:07:40;3.30;;;3.10;;
4011;SDS011;2020;48.682;9.024;2023-09-30T07:10:08;7.70;;;3.47;;
4011;SDS011;2020;48.682;9.024;2023-09-30T07:12:33;3.20;;;3.03;;
4011;SDS011;2020;48.682;9.024;2023-09-30T07:15:01;3.73;;;2.20;;
4011;SDS011;2020;48.682;9.024;2023-09-30T07:17:27;2.83;;;2.53;;
4011;SDS011;2020;48.682;9.024;2023-09-30T07:19:52;3.07;;;2.90;;
4011;SDS011;2020;48.682;9.024;2023-09-30T07:22:18;3.80;;;2.90;;
4011;SDS011;2020;48.682;9.024;2023-09-30T07:24:43;3.63;;;3.37;;
4011;SDS011;2020;48.682;9.024;2023-09-30T07:27:09;4.33;;;3.00;;
4011;SDS011;2020;48.682;9.024;2023-09-30T07:29:34;2.00;;;1.90;;
4011;SDS011;2020;48.682;9.024;2023-09-30T07:32:02;3.53;;;3.33;;
4011;SDS011;2020;48.682;9.024;2023-09-30T07:34:27;7.90;;;4.03;;
4011;SDS011;2020;48.682;9.024;2023-09-30T07:36:52;5.20;;;3.77;;
4011;SDS011;2020;48.682;9.024;2023-09-30T07:39:18;4.70;;;3.90;;
4011;SDS011;2020;48.682;9.024;2023-09-30T07:41:43;3.83;;;3.53;;
4011;SDS011;2020;48.682;9.024;2023-09-30T07:44:08;3.80;;;3.60;;
4011;SDS011;2020;48.682;9.024;2023-09-30T07:46:34;3.23;;;2.60;;
4011;SDS011;2020;48.682;9.024;2023-09-30T07:49:00;3.47;;;2.63;;
4011;SDS011;2020;48.682;9.024;2023-09-30T07:51:25;3.10;;;2.63;;
4011;SDS011;2020;48.682;9.024;2023-09-30T07:53:51;6.23;;;3.50;;
4011;SDS011;2020;48.682;9.024;2023-09-30T07:56:17;5.20;;;3.20;;
4011;SDS011;2020;48.682;9.024;2023-09-30T07:58:42;9.93;;;3.47;;
4011;SDS011;2020;48.682;9.024;2023-09-30T08:01:07;3.30;;;3.10;;
4011;SDS011;2020;48.682;9.024;2023-09-30T08:03:33;3.73;;;3.37;;
4011;SDS011;2020;48.682;9.024;2023-09-30T08:05:59;3.43;;;2.13;;
4011;SDS011;2020;48.682;9.024;2023-09-30T08:08:25;4.40;;;2.77;;
4011;SDS011;2020;48.682;9.024;2023-09-30T08:10:50;2.97;;;2.83;;
4011;SDS011;2020;48.682;9.024;2023-09-30T08:13:20;3.33;;;3.00;;
4011;SDS011;2020;48.682;9.024;2023-09-30T08:15:45;6.47;;;3.40;;
4011;SDS011;2020;48.682;9.024;2023-09-30T08:18:10;2.97;;;2.40;;
4011;SDS011;2020;48.682;9.024;2023-09-30T08:20:36;7.23;;;2.80;;
4011;SDS011;2020;48.682;9.024;2023-09-30T08:23:01;3.30;;;3.00;;
4011;SDS011;2020;48.682;9.024;2023-09-30T08:25:28;5.70;;;2.83;;
4011;SDS011;2020;48.682;9.024;2023-09-30T08:27:53;5.50;;;2.50;;
4011;SDS011;2020;48.682;9.024;2023-09-30T08:30:19;2.73;;;2.60;;
4011;SDS011;2020;48.682;9.024;2023-09-30T08:32:44;3.60;;;3.30;;
4011;SDS011;2020;48.682;9.024;2023-09-30T08:35:11;2.63;;;2.50;;
4011;SDS011;2020;48.682;9.024;2023-09-30T08:37:39;3.73;;;3.40;;
4011;SDS011;2020;48.682;9.024;2023-09-30T08:40:05;3.07;;;2.37;;
4011;SDS011;2020;48.682;9.024;2023-09-30T08:42:30;2.60;;;2.07;;
4011;SDS011;2020;48.682;9.024;2023-09-30T08:44:57;5.70;;;3.00;;
4011;SDS011;2020;48.682;9.024;2023-09-30T08:47:24;3.47;;;2.87;;
4011;SDS011;2020;48.682;9.024;2023-09-30T08:49:52;3.53;;;2.53;;
4011;SDS011;2020;48.682;9.024;2023-09-30T08:52:21;2.70;;;2.50;;
4011;SDS011;2020;48.682;9.024;2023-09-30T08:54:47;2.33;;;2.23;;
4011;SDS011;2020;48.682;9.024;2023-09-30T08:57:13;3.83;;;2.37;;
4011;SDS011;2020;48.682;9.024;2023-09-30T08:59:42;3.03;;;2.57;;
4011;SDS011;2020;48.682;9.024;2023-09-30T09:02:08;3.43;;;3.10;;
4011;SDS011;2020;48.682;9.024;2023-09-30T09:04:35;2.97;;;2.63;;
4011;SDS011;2020;48.682;9.024;2023-09-30T09:07:02;3.27;;;2.60;;
4011;SDS011;2020;48.682;9.024;2023-09-30T09:09:27;3.57;;;3.37;;
4011;SDS011;2020;48.682;9.024;2023-09-30T09:11:53;4.10;;;2.47;;
4011;SDS011;2020;48.682;9.024;2023-09-30T09:14:18;3.50;;;2.63;;
4011;SDS011;2020;48.682;9.024;2023-09-30T09:16:53;2.90;;;2.43;;
4011;SDS011;2020;48.682;9.024;2023-09-30T09:19:20;3.00;;;2.80;;
4011;SDS011;2020;48.682;9.024;2023-09-30T09:21:53;3.17;;;2.70;;
4011;SDS011;2020;48.682;9.024;2023-09-30T09:24:27;3.20;;;2.90;;
4011;SDS011;2020;48.682;9.024;2023-09-30T09:27:09;2.93;;;2.73;;
4011;SDS011;2020;48.682;9.024;2023-09-30T09:29:36;5.50;;;2.87;;
4011;SDS011;2020;48.682;9.024;2023-09-30T09:34:38;2.80;;;2.50;;
4011;SDS011;2020;48.682;9.024;2023-09-30T09:37:14;4.43;;;3.23;;
4011;SDS011;2020;48.682;9.024;2023-09-30T09:40:01;3.03;;;2.93;;
4011;SDS011;2020;48.682;9.024;2023-09-30T09:42:29;6.60;;;2.30;;
4011;SDS011;2020;48.682;9.024;2023-09-30T09:44:59;2.60;;;2.47;;
4011;SDS011;2020;48.682;9.024;2023-09-30T09:47:27;3.00;;;2.80;;
4011;SDS011;2020;48.682;9.024;2023-09-30T09:49:54;6.57;;;2.77;;
4011;SDS011;2020;48.682;9.024;2023-09-30T09:52:22;2.90;;;2.70;;
4011;SDS011;2020;48.682;9.024;2023-09-30T09:54:49;3.93;;;3.27;;
4011;SDS011;2020;48.682;9.024;2023-09-30T09:57:16;4.57;;;3.37;;
4011;SDS011;2020;48.682;9.024;2023-09-30T09:59:42;3.03;;;2.80;;
4011;SDS011;2020;48.682;9.024;2023-09-30T10:02:11;5.23;;;3.20;;
4011;SDS011;2020;48.682;9.024;2023-09-30T10:04:40;3.13;;;2.93;;
4011;SDS011;2020;48.682;9.024;2023-09-30T10:07:10;3.27;;;2.97;;
4011;SDS011;2020;48.682;9.024;2023-09-30T10:09:41;4.57;;;3.10;;
4011;SDS011;2020;48.682;9.024;2023-09-30T10:12:10;4.57;;;3.23;;
4011;SDS011;2020;48.682;9.024;2023-09-30T10:14:36;2.50;;;2.10;;
4011;SDS011;2020;48.682;9.024;2023-09-30T10:17:02;3.47;;;3.13;;
4011;SDS011;2020;48.682;9.024;2023-09-30T10:19:28;6.30;;;3.10;;
4011;SDS011;2020;48.682;9.024;2023-09-30T10:24:44;5.87;;;3.60;;
4011;SDS011;2020;48.682;9.024;2023-09-30T10:29:46;3.20;;;2.90;;
4011;SDS011;2020;48.682;9.024;2023-09-30T10:32:12;3.37;;;3.00;;
4011;SDS011;2020;48.682;9.024;2023-09-30T10:34:38;4.70;;;2.73;;
4011;SDS011;2020;48.682;9.024;2023-09-30T10:37:19;4.10;;;3.10;;
4011;SDS011;2020;48.682;9.024;2023-09-30T10:39:53;5.30;;;3.40;;
4011;SDS011;2020;48.682;9.024;2023-09-30T10:50:51;8.70;;;3.73;;
4011;SDS011;2020;48.682;9.024;2023-09-30T10:53:21;5.80;;;3.20;;
4011;SDS011;2020;48.682;9.024;2023-09-30T10:55:53;6.33;;;4.00;;
4011;SDS011;2020;48.682;9.024;2023-09-30T10:58:20;4.27;;;3.37;;
4011;SDS011;2020;48.682;9.024;2023-09-30T11:00:52;4.30;;;2.73;;
4011;SDS011;2020;48.682;9.024;2023-09-30T11:03:21;7.10;;;3.50;;
4011;SDS011;2020;48.682;9.024;2023-09-30T11:05:47;3.80;;;3.20;;
4011;SDS011;2020;48.682;9.024;2023-09-30T11:08:13;3.53;;;2.50;;
4011;SDS011;2020;48.682;9.024;2023-09-30T11:10:48;5.90;;;3.80;;
4011;SDS011;2020;48.682;9.024;2023-09-30T11:13:15;3.87;;;3.50;;
4011;SDS011;2020;48.682;9.024;2023-09-30T11:15:43;7.93;;;4.30;;
4011;SDS011;2020;48.682;9.024;2023-09-30T11:18:15;6.30;;;3.80;;
4011;SDS011;2020;48.682;9.024;2023-09-30T11:20:42;5.97;;;3.60;;
4011;SDS011;2020;48.682;9.024;2023-09-30T11:23:08;4.83;;;3.40;;
4011;SDS011;2020;48.682;9.024;2023-09-30T11:25:37;3.87;;;3.30;;
4011;SDS011;2020;48.682;9.024;2023-09-30T11:28:14;5.40;;;3.53;;
4011;SDS011;2020;48.682;9.024;2023-09-30T11:30:59;5.87;;;3.47;;
4011;SDS011;2020;48.682;9.024;2023-09-30T11:33:25;8.47;;;3.50;;
4011;SDS011;2020;48.682;9.024;2023-09-30T11:36:06;6.00;;;3.87;;
4011;SDS011;2020;48.682;9.024;2023-09-30T11:38:32;4.57;;;3.40;;
4011;SDS011;2020;48.682;9.024;2023-09-30T11:43:27;4.90;;;3.17;;
4011;SDS011;2020;48.682;9.024;2023-09-30T11:45:52;4.97;;;3.37;;
4011;SDS011;2020;48.682;9.024;2023-09-30T11:48:18;4.47;;;3.03;;
4011;SDS011;2020;48.682;9.024;2023-09-30T11:50:48;5.57;;;2.93;;
4011;SDS011;2020;48.682;9.024;2023-09-30T11:53:16;4.30;;;3.43;;
4011;SDS011;2020;48.682;9.024;2023-09-30T11:55:43;3.40;;;3.10;;
4011;SDS011;2020;48.682;9.024;2023-09-30T11:58:08;3.57;;;3.27;;
4011;SDS011;2020;48.682;9.024;2023-09-30T12:00:34;4.73;;;3.70;;
4011;SDS011;2020;48.682;9.024;2023-09-30T12:03:00;4.93;;;4.10;;
4011;SDS011;2020;48.682;9.024;2023-09-30T12:05:25;6.13;;;3.37;;
4011;SDS011;2020;48.682;9.024;2023-09-30T12:07:50;5.83;;;3.30;;
4011;SDS011;2020;48.682;9.024;2023-09-30T12:10:16;4.10;;;3.60;;
4011;SDS011;2020;48.682;9.024;2023-09-30T12:12:41;4.23;;;3.63;;
4011;SDS011;2020;48.682;9.024;2023-09-30T12:15:06;4.80;;;3.43;;
4011;SDS011;2020;48.682;9.024;2023-09-30T12:17:34;4.20;;;3.80;;
4011;SDS011;2020;48.682;9.024;2023-09-30T12:19:59;10.43;;;3.43;;
4011;SDS011;2020;48.682;9.024;2023-09-30T12:22:24;9.70;;;4.27;;
4011;SDS011;2020;48.682;9.024;2023-09-30T12:24:50;2.90;;;2.70;;
4011;SDS011;2020;48.682;9.024;2023-09-30T12:27:17;3.73;;;2.80;;
4011;SDS011;2020;48.682;9.024;2023-09-30T12:29:42;3.73;;;3.00;;
4011;SDS011;2020;48.682;9.024;2023-09-30T12:32:08;4.40;;;2.93;;
4011;SDS011;2020;48.682;9.024;2023-09-30T12:34:34;8.83;;;3.40;;
4011;SDS011;2020;48.682;9.024;2023-09-30T12:37:00;3.50;;;3.00;;
4011;SDS011;2020;48.682;9.024;2023-09-30T12:39:26;4.50;;;3.50;;
4011;SDS011;2020;48.682;9.024;2023-09-30T12:41:55;3.43;;;3.07;;
4011;SDS011;2020;48.682;9.024;2023-09-30T12:44:20;4.67;;;2.43;;
4011;SDS011;2020;48.682;9.024;2023-09-30T12:46:45;5.23;;;2.63;;
4011;SDS011;2020;48.682;9.024;2023-09-30T12:49:11;5.63;;;2.67;;
4011;SDS011;2020;48.682;9.024;2023-09-30T12:51:36;6.40;;;3.30;;
4011;SDS011;2020;48.682;9.024;2023-09-30T12:54:02;3.17;;;2.93;;
4011;SDS011;2020;48.682;9.024;2023-09-30T12:56:28;3.67;;;3.07;;
4011;SDS011;2020;48.682;9.024;2023-09-30T12:58:54;3.37;;;3.10;;
4011;SDS011;2020;48.682;9.024;2023-09-30T13:01:20;3.27;;;3.00;;
4011;SDS011;2020;48.682;9.024;2023-09-30T13:03:46;3.50;;;3.20;;
4011;SDS011;2020;48.682;9.024;2023-09-30T13:06:12;3.67;;;3.30;;
4011;SDS011;2020;48.682;9.024;2023-09-30T13:08:38;4.40;;;2.87;;
4011;SDS011;2020;48.682;9.024;2023-09-30T13:11:03;6.67;;;3.33;;
4011;SDS011;2020;48.682;9.024;2023-09-30T13:13:29;4.60;;;2.83;;
4011;SDS011;2020;48.682;9.024;2023-09-30T13:15:56;7.90;;;3.50;;
4011;SDS011;2020;48.682;9.024;2023-09-30T13:18:24;3.83;;;3.40;;
4011;SDS011;2020;48.682;9.024;2023-09-30T13:20:50;4.40;;;2.93;;
4011;SDS011;2020;48.682;9.024;2023-09-30T13:23:17;9.27;;;3.57;;
4011;SDS011;2020;48.682;9.024;2023-09-30T13:25:42;7.47;;;3.67;;
4011;SDS011;2020;48.682;9.024;2023-09-30T13:28:08;6.77;;;2.83;;
4011;SDS011;2020;48.682;9.024;2023-09-30T13:30:33;4.93;;;3.67;;
4011;SDS011;2020;48.682;9.024;2023-09-30T13:32:58;4.70;;;3.13;;
4011;SDS011;2020;48.682;9.024;2023-09-30T13:35:24;3.37;;;3.17;;
4011;SDS011;2020;48.682;9.024;2023-09-30T13:37:49;5.30;;;3.20;;
4011;SDS011;2020;48.682;9.024;2023-09-30T13:40:14;5.83;;;3.37;;
4011;SDS011;2020;48.682;9.024;2023-09-30T13:42:40;4.97;;;3.43;;
4011;SDS011;2020;48.682;9.024;2023-09-30T13:45:05;2.90;;;2.70;;
4011;SDS011;2020;48.682;9.024;2023-09-30T13:47:31;4.07;;;3.17;;
4011;SDS011;2020;48.682;9.024;2023-09-30T13:49:56;3.30;;;3.00;;
4011;SDS011;2020;48.682;9.024;2023-09-30T13:52:22;4.60;;;3.03;;
4011;SDS011;2020;48.682;9.024;2023-09-30T13:54:47;3.93;;;3.10;;
4011;SDS011;2020;48.682;9.024;2023-09-30T13:57:12;4.10;;;3.70;;
4011;SDS011;2020;48.682;9.024;2023-09-30T13:59:39;3.23;;;2.93;;
4011;SDS011;2020;48.682;9.024;2023-09-30T14:02:04;4.13;;;3.33;;
4011;SDS011;2020;48.682;9.024;2023-09-30T14:04:30;3.83;;;2.93;;
4011;SDS011;2020;48.682;9.024;2023-09-30T14:07:00;3.00;;;2.80;;
4011;SDS011;2020;48.682;9.024;2023-09-30T14:09:27;4.53;;;3.00;;
4011;SDS011;2020;48.682;9.024;2023-09-30T14:11:52;6.93;;;2.80;;
4011;SDS011;2020;48.682;9.024;2023-09-30T14:14:18;4.90;;;3.00;;
4011;SDS011;2020;48.682;9.024;2023-09-30T14:16:43;2.90;;;2.50;;
4011;SDS011;2020;48.682;9.024;2023-09-30T14:19:08;3.60;;;3.10;;
4011;SDS011;2020;48.682;9.024;2023-09-30T14:21:34;2.40;;;2.20;;
4011;SDS011;2020;48.682;9.024;2023-09-30T14:23:59;5.80;;;2.57;;
4011;SDS011;2020;48.682;9.024;2023-09-30T14:26:26;3.27;;;2.97;;
4011;SDS011;2020;48.682;9.024;2023-09-30T14:28:52;3.20;;;2.97;;
4011;SDS011;2020;48.682;9.024;2023-09-30T14:31:17;4.00;;;2.93;;
4011;SDS011;2020;48.682;9.024;2023-09-30T14:33:43;4.53;;;3.30;;
4011;SDS011;2020;48.682;9.024;2023-09-30T14:36:08;6.10;;;3.47;;
4011;SDS011;2020;48.682;9.024;2023-09-30T14:38:33;2.50;;;2.30;;
4011;SDS011;2020;48.682;9.024;2023-09-30T14:40:58;3.10;;;2.80;;
4011;SDS011;2020;48.682;9.024;2023-09-30T14:43:24;4.33;;;2.50;;
4011;SDS011;2020;48.682;9.024;2023-09-30T14:45:49;2.90;;;2.70;;
4011;SDS011;2020;48.682;9.024;2023-09-30T14:48:14;5.30;;;3.47;;
4011;SDS011;2020;48.682;9.024;2023-09-30T14:51:01;2.87;;;2.67;;
4011;SDS011;2020;48.682;9.024;2023-09-30T14:53:25;5.30;;;3.70;;
4011;SDS011;2020;48.682;9.024;2023-09-30T14:55:50;5.43;;;3.40;;
4011;SDS011;2020;48.682;9.024;2023-09-30T14:58:16;4.90;;;3.27;;
4011;SDS011;2020;48.682;9.024;2023-09-30T15:00:41;3.43;;;2.80;;
4011;SDS011;2020;48.682;9.024;2023-09-30T15:03:07;4.67;;;2.83;;
4011;SDS011;2020;48.682;9.024;2023-09-30T15:05:33;3.90;;;3.53;;
4011;SDS011;2020;48.682;9.024;2023-09-30T15:07:58;3.70;;;3.40;;
4011;SDS011;2020;48.682;9.024;2023-09-30T15:10:26;4.20;;;3.60;;
4011;SDS011;2020;48.682;9.024;2023-09-30T15:12:51;3.23;;;2.80;;
4011;SDS011;2020;48.682;9.024;2023-09-30T15:15:17;5.30;;;3.70;;
4011;SDS011;2020;48.682;9.024;2023-09-30T15:17:43;6.77;;;3.33;;
4011;SDS011;2020;48.682;9.024;2023-09-30T15:20:08;3.83;;;3.50;;
4011;SDS011;2020;48.682;9.024;2023-09-30T15:22:34;3.80;;;3.03;;
4011;SDS011;2020;48.682;9.024;2023-09-30T15:25:01;5.33;;;2.80;;
4011;SDS011;2020;48.682;9.024;2023-09-30T15:27:26;5.33;;;3.63;;
4011;SDS011;2020;48.682;9.024;2023-09-30T15:29:51;3.40;;;3.10;;